Terminal Aerodrome Forecast
Issued by NWS

Home | Current Version | Previous Version | Text Only | Print | Product List | Glossary On
Versions: 1 2 3 4 5 6 7 8 9 10 11 12 13 14 15 16 17 18 19
000
FTUS43 KGRB 292330
TAFAUW
TAF
KAUW 292330Z 3000/3024 08007KT P6SM VCSH BKN060
      TEMPO 3002/3005 5SM -RA BKN035
     FM300500 09006KT 5SM -RASN BKN035
      TEMPO 3005/3009 2SM -SN BKN012
     FM300900 09007KT 2SM -SN BKN009
     FM301500 09009G15KT 4SM -RASN BKN012=

USA.gov is the U.S. government's official web portal to all federal, state and local government web resources and services.